Time;durP1;ratioP1;P1;durP2;ratioP2;P2;SDS_P1;SDS_P2;PMS_P1;PMS_P2;Temp;Humidity;BMP_temperature;BMP_pressure;BME280_temperature;BME280_humidity;BME280_pressure;Samples;Min_cycle;Max_cycle;Signal;HPM_P1;HPM_P2
2022/08/05 00:01:41;;;;;;;;;;;17.90;99.90;;;;;;5093821;28;19916;-70
2022/08/05 00:04:07;;;;;;;;;;;17.90;99.90;;;;;;5093679;28;19908;-69
2022/08/05 00:06:34;;;;;;;;;;;17.90;99.90;;;;;;5104994;28;20433;-70
2022/08/05 00:09:01;;;;;;;;;;;18.00;99.90;;;;;;5097839;28;19908;-70
2022/08/05 00:11:28;;;;;;;;;;;17.90;99.90;;;;;;5097698;28;20315;-70
2022/08/05 00:13:55;;;;;;;;;;;18.00;99.90;;;;;;5097487;28;20263;-70
2022/08/05 00:16:22;;;;;;;;;;;18.00;99.90;;;;;;5097410;28;19912;-69
2022/08/05 00:18:49;;;;;;;;;;;18.00;99.90;;;;;;5097573;28;19912;-70
2022/08/05 00:21:16;;;;;;;;;;;18.00;99.90;;;;;;5097386;28;19916;-69
2022/08/05 00:23:44;;;;;;;;;;;18.00;99.90;;;;;;5097312;28;20006;-70
2022/08/05 00:26:11;;;;;;;;;;;18.00;99.90;;;;;;5097157;28;19923;-70
2022/08/05 00:28:38;;;;;;;;;;;18.00;99.90;;;;;;5097020;28;19908;-70
2022/08/05 00:31:05;;;;;;;;;;;18.10;99.90;;;;;;5097773;28;20332;-70
2022/08/05 00:33:32;;;;;;;;;;;18.10;99.90;;;;;;5097538;28;20354;-70
2022/08/05 00:35:59;;;;;;;;;;;18.10;99.90;;;;;;5097371;28;19908;-70
2022/08/05 00:38:26;;;;;;;;;;;18.20;99.90;;;;;;5097841;28;19908;-68
2022/08/05 00:40:54;;;;;;;;;;;18.20;99.90;;;;;;5098523;28;19943;-70
2022/08/05 00:43:21;;;;;;;;;;;18.20;99.90;;;;;;5099556;28;20361;-70
2022/08/05 00:45:48;;;;;;;;;;;18.20;99.90;;;;;;5096849;28;19973;-70
2022/08/05 00:48:16;;;;;;;;;;;18.20;99.90;;;;;;5096439;28;19908;-70
2022/08/05 00:50:44;;;;;;;;;;;18.20;99.90;;;;;;5096947;28;20370;-70
2022/08/05 00:53:11;;;;;;;;;;;18.20;99.90;;;;;;5104811;28;19908;-70
2022/08/05 00:55:38;;;;;;;;;;;18.20;99.90;;;;;;5106398;28;20370;-70
2022/08/05 00:58:04;;;;;;;;;;;18.30;99.90;;;;;;5101158;28;20358;-70
2022/08/05 01:00:31;;;;;;;;;;;18.30;99.90;;;;;;5096244;28;19991;-69
2022/08/05 01:02:58;;;;;;;;;;;18.30;99.90;;;;;;5096326;28;19961;-70
2022/08/05 01:05:25;;;;;;;;;;;18.40;99.90;;;;;;5095702;28;20304;-70
2022/08/05 01:07:51;;;;;;;;;;;18.50;99.90;;;;;;5095947;28;19909;-70
2022/08/05 01:10:21;;;;;;;;;;;18.40;99.90;;;;;;5095770;28;19908;-69
2022/08/05 01:12:51;;;;;;;;;;;18.50;99.90;;;;;;5095723;28;19951;-67
2022/08/05 01:15:20;;;;;;;;;;;18.50;99.90;;;;;;5095604;28;19915;-70
2022/08/05 01:17:50;;;;;;;;;;;18.50;99.90;;;;;;5095914;28;19909;-70
2022/08/05 01:20:34;;;;;;;;;;;18.60;99.90;;;;;;5095725;28;19908;-70
2022/08/05 01:23:07;;;;;;;;;;;18.50;99.90;;;;;;5094398;28;20270;-70
2022/08/05 01:25:45;;;;;;;;;;;18.50;99.90;;;;;;5095552;28;20362;-70
2022/08/05 01:28:23;;;;;;;;;;;18.50;99.90;;;;;;5095484;28;19961;-69
2022/08/05 01:30:59;;;;;;;;;;;18.50;99.90;;;;;;5095937;28;19908;-70
2022/08/05 01:33:30;;;;;;;;;;;18.50;99.90;;;;;;5096941;28;19915;-70
2022/08/05 01:35:59;;;;;;;;;;;18.40;99.90;;;;;;5099779;28;19931;-70
2022/08/05 01:38:27;;;;;;;;;;;18.40;99.90;;;;;;5095494;28;19963;-70
2022/08/05 01:40:54;;;;;;;;;;;18.40;99.90;;;;;;5095505;28;19914;-68
2022/08/05 01:43:22;;;;;;;;;;;18.50;99.90;;;;;;5095193;28;19916;-70
2022/08/05 01:45:49;;;;;;;;;;;18.50;99.90;;;;;;5094934;28;19924;-70
2022/08/05 01:48:16;;;;;;;;;;;18.60;99.90;;;;;;5095036;28;20003;-70
2022/08/05 01:50:43;;;;;;;;;;;18.60;99.90;;;;;;5094832;28;20017;-70
2022/08/05 01:53:11;;;;;;;;;;;18.60;99.90;;;;;;5094867;28;19908;-69
2022/08/05 01:55:40;;;;;;;;;;;18.60;99.90;;;;;;5094975;28;19908;-70
2022/08/05 01:58:08;;;;;;;;;;;18.70;99.90;;;;;;5094637;28;19908;-68
2022/08/05 02:00:36;;;;;;;;;;;18.70;99.90;;;;;;5094907;28;19918;-70
2022/08/05 02:03:16;;;;;;;;;;;18.80;99.90;;;;;;5094770;28;19912;-68
2022/08/05 02:05:44;;;;;;;;;;;18.80;99.90;;;;;;5094408;28;19916;-68
2022/08/05 02:08:11;;;;;;;;;;;18.80;99.90;;;;;;5094468;28;19977;-68
2022/08/05 02:10:46;;;;;;;;;;;18.80;99.90;;;;;;5094439;28;19912;-68
2022/08/05 02:13:26;;;;;;;;;;;18.90;99.90;;;;;;5070863;28;19920;-68
2022/08/05 02:16:05;;;;;;;;;;;19.20;99.90;;;;;;5053451;28;20000;-69
2022/08/05 02:18:54;;;;;;;;;;;19.20;99.90;;;;;;5053519;28;19908;-68
2022/08/05 02:21:27;;;;;;;;;;;19.30;99.90;;;;;;5052630;28;19908;-67
2022/08/05 02:23:56;;;;;;;;;;;19.30;99.90;;;;;;5075172;28;19916;-67
2022/08/05 02:26:26;;;;;;;;;;;19.30;99.90;;;;;;5094117;28;19920;-68
2022/08/05 02:28:54;;;;;;;;;;;19.20;99.90;;;;;;5093509;28;19908;-68
2022/08/05 02:31:26;;;;;;;;;;;19.30;99.90;;;;;;5094182;28;20305;-68
2022/08/05 02:34:04;;;;;;;;;;;19.40;99.90;;;;;;5094151;28;19915;-67
2022/08/05 02:36:33;;;;;;;;;;;19.40;99.90;;;;;;5094062;28;19915;-68
2022/08/05 02:39:02;;;;;;;;;;;19.50;99.90;;;;;;5094680;28;19990;-67
2022/08/05 02:41:30;;;;;;;;;;;19.40;99.90;;;;;;5094104;28;19912;-69
2022/08/05 02:43:58;;;;;;;;;;;19.40;99.90;;;;;;5094553;28;19923;-69
2022/08/05 02:46:25;;;;;;;;;;;19.40;99.90;;;;;;5093939;28;20317;-69
2022/08/05 02:48:56;;;;;;;;;;;19.50;99.90;;;;;;5093847;28;20130;-69
2022/08/05 02:51:23;;;;;;;;;;;19.60;99.90;;;;;;5094212;28;19908;-69
2022/08/05 02:53:50;;;;;;;;;;;19.80;99.90;;;;;;5093769;28;19951;-70
2022/08/05 02:56:17;;;;;;;;;;;19.80;99.80;;;;;;5093588;28;19953;-69
2022/08/05 02:58:44;;;;;;;;;;;20.00;99.90;;;;;;5093814;28;19919;-69
2022/08/05 03:01:14;;;;;;;;;;;20.20;99.90;;;;;;5093654;28;19908;-69
2022/08/05 03:03:41;;;;;;;;;;;20.10;99.60;;;;;;5093551;28;19908;-70
2022/08/05 03:06:11;;;;;;;;;;;20.20;99.10;;;;;;5093198;28;19916;-69
2022/08/05 03:08:39;;;;;;;;;;;20.10;99.30;;;;;;5093654;28;19918;-69
2022/08/05 03:11:16;;;;;;;;;;;20.00;99.60;;;;;;5094261;28;19915;-69
2022/08/05 03:13:42;;;;;;;;;;;20.00;99.00;;;;;;5093196;28;20274;-70
2022/08/05 03:16:09;;;;;;;;;;;19.90;99.80;;;;;;5093288;28;20416;-69
2022/08/05 03:18:37;;;;;;;;;;;19.90;98.80;;;;;;5092199;28;19978;-70
2022/08/05 03:21:04;;;;;;;;;;;20.00;98.10;;;;;;5093424;28;19919;-69
2022/08/05 03:23:31;;;;;;;;;;;20.00;98.10;;;;;;5093340;28;19954;-69
2022/08/05 03:25:58;;;;;;;;;;;20.10;97.50;;;;;;5093305;28;19978;-70
2022/08/05 03:28:25;;;;;;;;;;;20.10;98.00;;;;;;5093209;28;19908;-69
2022/08/05 03:30:52;;;;;;;;;;;20.10;98.50;;;;;;5093228;28;19908;-70
2022/08/05 03:33:20;;;;;;;;;;;20.10;98.60;;;;;;5093311;28;19954;-69
2022/08/05 03:35:47;;;;;;;;;;;20.10;98.40;;;;;;5093086;28;19954;-69
2022/08/05 03:38:14;;;;;;;;;;;20.10;99.40;;;;;;5092926;28;20002;-69
2022/08/05 03:40:41;;;;;;;;;;;20.30;98.90;;;;;;5096935;28;19912;-70
2022/08/05 03:43:08;;;;;;;;;;;20.30;98.80;;;;;;5097154;28;20006;-69
2022/08/05 03:45:35;;;;;;;;;;;20.30;98.80;;;;;;5095675;28;19920;-69
2022/08/05 03:48:02;;;;;;;;;;;20.40;99.00;;;;;;5096792;28;19923;-69
2022/08/05 03:50:42;;;;;;;;;;;20.40;98.10;;;;;;5095398;28;19908;-71
2022/08/05 03:53:11;;;;;;;;;;;20.50;97.20;;;;;;5097199;28;19908;-69
2022/08/05 03:55:42;;;;;;;;;;;20.50;97.30;;;;;;5097071;28;20014;-69
2022/08/05 03:58:10;;;;;;;;;;;20.40;97.80;;;;;;5096735;28;19908;-70
2022/08/05 04:00:38;;;;;;;;;;;20.40;97.60;;;;;;5096732;28;19908;-69
2022/08/05 04:03:06;;;;;;;;;;;20.40;97.00;;;;;;5096723;28;19919;-69
2022/08/05 04:05:34;;;;;;;;;;;20.40;96.50;;;;;;5096482;28;19908;-69
2022/08/05 04:08:05;;;;;;;;;;;20.40;96.20;;;;;;5096588;28;19912;-70
2022/08/05 04:10:33;;;;;;;;;;;20.50;94.60;;;;;;5096643;28;19915;-70
2022/08/05 04:12:59;;;;;;;;;;;20.50;95.70;;;;;;5096604;28;20341;-69
2022/08/05 04:15:27;;;;;;;;;;;20.40;95.60;;;;;;5096526;28;19908;-69
2022/08/05 04:17:54;;;;;;;;;;;20.60;94.60;;;;;;5096507;28;19914;-69
2022/08/05 04:20:22;;;;;;;;;;;20.60;95.60;;;;;;5096094;28;19958;-69
2022/08/05 04:22:49;;;;;;;;;;;20.60;94.80;;;;;;5096325;28;19912;-69
2022/08/05 04:25:16;;;;;;;;;;;20.50;95.40;;;;;;5096288;28;19953;-69
2022/08/05 04:27:43;;;;;;;;;;;20.50;95.80;;;;;;5096338;28;20371;-69
2022/08/05 04:30:10;;;;;;;;;;;20.50;95.80;;;;;;5095971;28;19908;-69
2022/08/05 04:32:36;;;;;;;;;;;20.40;96.20;;;;;;5095930;28;19908;-69
2022/08/05 04:35:03;;;;;;;;;;;20.60;94.70;;;;;;5096174;28;19908;-69
2022/08/05 04:37:31;;;;;;;;;;;20.50;92.80;;;;;;5096084;28;19933;-69
2022/08/05 04:39:58;;;;;;;;;;;20.70;92.90;;;;;;5096134;28;19915;-69
2022/08/05 04:42:25;;;;;;;;;;;20.60;93.70;;;;;;5095771;28;20384;-69
2022/08/05 04:44:52;;;;;;;;;;;20.50;93.20;;;;;;5095756;28;20431;-69
2022/08/05 04:47:18;;;;;;;;;;;20.50;94.10;;;;;;5095739;28;20298;-69
2022/08/05 04:49:45;;;;;;;;;;;20.50;94.10;;;;;;5095633;28;19912;-69
2022/08/05 04:52:12;;;;;;;;;;;20.50;92.70;;;;;;5094909;28;19908;-68
2022/08/05 04:54:39;;;;;;;;;;;20.40;93.00;;;;;;5095735;28;19915;-69
2022/08/05 04:57:05;;;;;;;;;;;20.30;93.40;;;;;;5095975;28;20493;-70
2022/08/05 04:59:32;;;;;;;;;;;20.30;93.90;;;;;;5095663;28;20010;-69
2022/08/05 05:01:59;;;;;;;;;;;20.30;93.60;;;;;;5095673;28;19915;-69
2022/08/05 05:04:26;;;;;;;;;;;20.20;93.50;;;;;;5095307;28;20007;-69
2022/08/05 05:06:52;;;;;;;;;;;20.30;94.60;;;;;;5095324;28;19920;-69
2022/08/05 05:09:19;;;;;;;;;;;20.40;95.10;;;;;;5095148;28;19927;-69
2022/08/05 05:11:46;;;;;;;;;;;20.40;95.70;;;;;;5095111;28;19908;-69
2022/08/05 05:14:12;;;;;;;;;;;20.20;96.00;;;;;;5094909;28;19939;-69
2022/08/05 05:16:39;;;;;;;;;;;20.20;97.70;;;;;;5094963;28;19908;-69
2022/08/05 05:19:06;;;;;;;;;;;20.10;98.30;;;;;;5095202;28;20015;-70
2022/08/05 05:21:32;;;;;;;;;;;20.20;98.20;;;;;;5094925;28;19915;-69
2022/08/05 05:23:59;;;;;;;;;;;20.20;98.40;;;;;;5095180;28;19962;-69
2022/08/05 05:26:26;;;;;;;;;;;20.20;98.30;;;;;;5094994;28;20324;-69
2022/08/05 05:28:53;;;;;;;;;;;20.20;98.80;;;;;;5095083;28;19908;-69
2022/08/05 05:31:19;;;;;;;;;;;20.20;98.20;;;;;;5094914;28;19912;-69
2022/08/05 05:33:46;;;;;;;;;;;20.20;97.80;;;;;;5095081;28;20408;-69
2022/08/05 05:36:13;;;;;;;;;;;20.30;97.50;;;;;;5094563;28;19908;-69
2022/08/05 05:38:39;;;;;;;;;;;20.40;97.90;;;;;;5094875;28;19912;-69
2022/08/05 05:41:06;;;;;;;;;;;20.40;96.30;;;;;;5094751;28;19908;-69
2022/08/05 05:43:33;;;;;;;;;;;20.30;97.20;;;;;;5094709;28;19916;-70
2022/08/05 05:45:59;;;;;;;;;;;20.20;96.30;;;;;;5094581;28;20015;-69
2022/08/05 05:48:26;;;;;;;;;;;20.10;96.60;;;;;;5094686;28;19912;-69
2022/08/05 05:50:53;;;;;;;;;;;20.20;96.00;;;;;;5094594;28;19908;-69
2022/08/05 05:53:19;;;;;;;;;;;20.20;94.50;;;;;;5094593;28;19939;-69
2022/08/05 05:55:46;;;;;;;;;;;20.20;93.90;;;;;;5094391;28;19965;-68
2022/08/05 05:58:13;;;;;;;;;;;20.20;92.70;;;;;;5094233;28;20320;-69
2022/08/05 06:00:39;;;;;;;;;;;20.20;92.80;;;;;;5094529;28;19908;-69
2022/08/05 06:03:08;;;;;;;;;;;20.10;94.00;;;;;;5093554;28;20286;-70
2022/08/05 06:05:35;;;;;;;;;;;20.00;92.70;;;;;;5094086;28;20381;-69
2022/08/05 06:08:02;;;;;;;;;;;20.00;92.80;;;;;;5094101;28;20057;-69
2022/08/05 06:10:28;;;;;;;;;;;20.00;91.80;;;;;;5094234;28;19912;-69
2022/08/05 06:12:55;;;;;;;;;;;19.90;93.80;;;;;;5094192;28;19915;-69
2022/08/05 06:15:22;;;;;;;;;;;19.80;91.90;;;;;;5094232;28;19915;-69
2022/08/05 06:17:48;;;;;;;;;;;19.90;92.10;;;;;;5094034;28;19912;-69
2022/08/05 06:20:15;;;;;;;;;;;19.80;91.90;;;;;;5093717;28;19908;-69
2022/08/05 06:22:42;;;;;;;;;;;19.70;92.90;;;;;;5094012;28;19954;-69
2022/08/05 06:25:09;;;;;;;;;;;19.60;93.10;;;;;;5094088;28;19908;-70
2022/08/05 06:27:35;;;;;;;;;;;19.50;92.50;;;;;;5093866;28;19963;-69
2022/08/05 06:30:03;;;;;;;;;;;19.50;92.70;;;;;;5093565;28;19915;-69
2022/08/05 06:32:30;;;;;;;;;;;19.60;92.40;;;;;;5093958;28;19908;-69
2022/08/05 06:34:57;;;;;;;;;;;19.70;91.60;;;;;;5093726;28;19908;-70
2022/08/05 06:37:25;;;;;;;;;;;19.70;92.40;;;;;;5093768;28;20002;-70
2022/08/05 06:39:52;;;;;;;;;;;19.70;93.20;;;;;;5093768;28;19915;-70
2022/08/05 06:42:18;;;;;;;;;;;19.50;93.30;;;;;;5093615;28;20027;-70
2022/08/05 06:44:45;;;;;;;;;;;19.40;93.60;;;;;;5093487;28;20057;-70
2022/08/05 06:47:12;;;;;;;;;;;19.40;93.20;;;;;;5093689;28;19916;-70
2022/08/05 06:49:38;;;;;;;;;;;19.30;92.90;;;;;;5093657;28;19909;-70
2022/08/05 06:52:05;;;;;;;;;;;19.20;93.80;;;;;;5091115;28;20022;-69
2022/08/05 06:54:32;;;;;;;;;;;19.20;93.30;;;;;;5091594;28;20375;-70
2022/08/05 06:56:58;;;;;;;;;;;19.20;94.00;;;;;;5091509;28;19915;-69
2022/08/05 06:59:27;;;;;;;;;;;19.10;93.80;;;;;;5091199;28;19982;-69
2022/08/05 07:01:53;;;;;;;;;;;19.00;94.50;;;;;;5090076;28;19919;-69
2022/08/05 07:04:20;;;;;;;;;;;18.90;95.20;;;;;;5091041;28;20564;-69
2022/08/05 07:06:47;;;;;;;;;;;18.90;96.00;;;;;;5090338;28;20282;-69
2022/08/05 07:09:14;;;;;;;;;;;18.90;97.00;;;;;;5091289;28;19912;-70
2022/08/05 07:11:40;;;;;;;;;;;18.80;97.70;;;;;;5091337;28;19995;-69
2022/08/05 07:16:58;;;;;;;;;;;18.70;98.80;;;;;;5055407;28;19916;-69
2022/08/05 07:19:25;;;;;;;;;;;18.60;98.60;;;;;;5055453;28;19909;-69
2022/08/05 07:21:52;;;;;;;;;;;18.60;99.00;;;;;;5055002;28;19916;-68
2022/08/05 07:24:19;;;;;;;;;;;18.60;99.30;;;;;;5054369;28;20324;-68
2022/08/05 07:26:46;;;;;;;;;;;18.60;99.70;;;;;;5054630;28;20286;-68
2022/08/05 07:29:13;;;;;;;;;;;18.60;99.20;;;;;;5053533;28;19916;-69
2022/08/05 07:31:40;;;;;;;;;;;18.50;99.40;;;;;;5054893;28;20348;-68
2022/08/05 07:34:07;;;;;;;;;;;18.50;98.90;;;;;;5054491;28;19909;-68
2022/08/05 07:36:34;;;;;;;;;;;18.60;98.60;;;;;;5054771;28;20309;-69
2022/08/05 07:39:01;;;;;;;;;;;18.60;98.60;;;;;;5054910;28;19923;-68
2022/08/05 07:41:28;;;;;;;;;;;18.50;98.80;;;;;;5054569;28;19916;-68
2022/08/05 07:43:56;;;;;;;;;;;18.50;98.50;;;;;;5054649;28;20402;-68
2022/08/05 07:46:23;;;;;;;;;;;18.50;98.60;;;;;;5054371;28;19986;-68
2022/08/05 07:48:50;;;;;;;;;;;18.40;98.40;;;;;;5054345;28;19908;-68
2022/08/05 07:51:17;;;;;;;;;;;18.40;98.20;;;;;;5054769;28;20261;-68
2022/08/05 07:53:43;;;;;;;;;;;18.40;98.20;;;;;;5054264;28;19932;-69
2022/08/05 07:56:10;;;;;;;;;;;18.30;98.30;;;;;;5054310;28;19909;-68
2022/08/05 07:58:37;;;;;;;;;;;18.40;98.10;;;;;;5054421;28;20331;-69
2022/08/05 08:01:03;;;;;;;;;;;18.30;97.60;;;;;;5054521;28;19959;-69
2022/08/05 08:03:30;;;;;;;;;;;18.30;97.60;;;;;;5054220;28;19925;-68
2022/08/05 08:05:57;;;;;;;;;;;18.30;96.70;;;;;;5053718;28;19916;-69
2022/08/05 08:08:24;;;;;;;;;;;18.30;97.00;;;;;;5054113;28;20004;-68
2022/08/05 08:10:51;;;;;;;;;;;18.30;96.80;;;;;;5054187;28;19908;-68
2022/08/05 08:13:17;;;;;;;;;;;18.20;97.00;;;;;;5054125;28;20015;-68
2022/08/05 08:15:44;;;;;;;;;;;18.20;96.10;;;;;;5054204;28;19913;-68
2022/08/05 08:18:11;;;;;;;;;;;18.20;96.30;;;;;;5054088;28;20264;-68
2022/08/05 08:20:38;;;;;;;;;;;18.10;96.30;;;;;;5053787;28;19909;-68
2022/08/05 08:23:06;;;;;;;;;;;18.10;95.70;;;;;;5053930;28;19945;-68
2022/08/05 08:25:33;;;;;;;;;;;18.20;95.80;;;;;;5052736;28;19962;-67
2022/08/05 08:28:00;;;;;;;;;;;18.10;95.60;;;;;;5053886;28;19923;-68
2022/08/05 08:30:27;;;;;;;;;;;18.00;95.80;;;;;;5053695;28;19909;-68
2022/08/05 08:32:53;;;;;;;;;;;18.00;95.80;;;;;;5053269;28;19916;-68
2022/08/05 08:35:20;;;;;;;;;;;18.00;95.90;;;;;;5053771;28;19909;-68
2022/08/05 08:37:47;;;;;;;;;;;18.00;95.10;;;;;;5053785;28;19909;-68
2022/08/05 08:40:14;;;;;;;;;;;18.00;95.00;;;;;;5053369;28;19915;-68
2022/08/05 08:42:41;;;;;;;;;;;18.00;95.40;;;;;;5053491;28;19913;-67
2022/08/05 08:45:09;;;;;;;;;;;18.00;95.00;;;;;;5052979;28;19921;-67
2022/08/05 08:47:36;;;;;;;;;;;18.00;95.00;;;;;;5053426;28;19917;-67
2022/08/05 08:50:03;;;;;;;;;;;18.00;94.20;;;;;;5053157;28;19948;-69
2022/08/05 08:52:31;;;;;;;;;;;18.00;94.50;;;;;;5053333;28;19915;-67
2022/08/05 08:54:58;;;;;;;;;;;18.00;94.50;;;;;;5054083;28;19909;-68
2022/08/05 08:57:25;;;;;;;;;;;18.00;94.20;;;;;;5053031;28;20405;-67
2022/08/05 08:59:52;;;;;;;;;;;18.00;94.30;;;;;;5052919;28;19913;-67
2022/08/05 09:02:19;;;;;;;;;;;18.00;93.80;;;;;;5053577;28;19954;-67
2022/08/05 09:04:46;;;;;;;;;;;18.00;93.90;;;;;;5054542;28;20260;-69
2022/08/05 09:07:13;;;;;;;;;;;18.00;94.20;;;;;;5055119;28;19916;-67
2022/08/05 09:09:40;;;;;;;;;;;17.90;94.20;;;;;;5055180;28;20004;-67
2022/08/05 09:12:10;;;;;;;;;;;17.90;94.10;;;;;;5054780;28;20266;-67
2022/08/05 09:14:37;;;;;;;;;;;17.80;94.00;;;;;;5054993;28;19909;-67
2022/08/05 09:17:05;;;;;;;;;;;17.80;94.10;;;;;;5054902;28;19948;-68
2022/08/05 09:19:32;;;;;;;;;;;17.80;94.20;;;;;;5054911;28;19909;-68
2022/08/05 09:21:59;;;;;;;;;;;17.80;94.20;;;;;;5054843;28;20429;-67
2022/08/05 09:24:25;;;;;;;;;;;17.70;93.80;;;;;;5054860;28;19909;-67
2022/08/05 09:26:55;;;;;;;;;;;17.80;92.90;;;;;;5054842;28;20035;-67
2022/08/05 09:29:35;;;;;;;;;;;17.70;93.00;;;;;;5054811;28;20356;-67
2022/08/05 09:32:03;;;;;;;;;;;17.80;93.70;;;;;;5054615;28;19971;-68
2022/08/05 09:34:49;;;;;;;;;;;17.80;92.90;;;;;;5054732;28;19909;-67
2022/08/05 09:37:20;;;;;;;;;;;17.70;93.00;;;;;;5054666;28;19916;-68
2022/08/05 09:39:46;;;;;;;;;;;17.70;92.90;;;;;;5054682;28;19909;-67
2022/08/05 09:42:15;;;;;;;;;;;17.70;92.90;;;;;;5054551;28;19909;-67
2022/08/05 09:44:44;;;;;;;;;;;17.70;92.40;;;;;;5054447;28;19921;-67
2022/08/05 09:47:20;;;;;;;;;;;17.70;92.50;;;;;;5054469;28;20364;-67
2022/08/05 09:49:48;;;;;;;;;;;17.70;92.30;;;;;;5054517;28;19971;-67
2022/08/05 09:52:22;;;;;;;;;;;17.70;92.30;;;;;;5054207;28;20271;-67
2022/08/05 09:54:53;;;;;;;;;;;17.70;92.70;;;;;;5054557;28;20381;-67
2022/08/05 09:57:40;;;;;;;;;;;17.70;92.50;;;;;;5054566;28;19909;-67
2022/08/05 10:00:18;;;;;;;;;;;17.70;91.70;;;;;;5053742;28;19954;-68
2022/08/05 10:02:45;;;;;;;;;;;17.70;93.10;;;;;;5054060;28;19912;-68
2022/08/05 10:05:14;;;;;;;;;;;17.60;93.00;;;;;;5054119;28;19908;-68
2022/08/05 10:07:47;;;;;;;;;;;17.60;92.10;;;;;;5054000;28;20374;-68
2022/08/05 10:10:14;;;;;;;;;;;17.60;92.50;;;;;;5053761;28;20295;-68
2022/08/05 10:12:48;;;;;;;;;;;17.60;93.30;;;;;;5053943;28;19996;-68
2022/08/05 10:15:15;;;;;;;;;;;17.50;92.20;;;;;;5053920;28;19913;-68
2022/08/05 10:17:42;;;;;;;;;;;17.50;93.40;;;;;;5053864;28;19908;-68
2022/08/05 10:20:11;;;;;;;;;;;17.50;93.10;;;;;;5053485;28;19996;-67
2022/08/05 10:22:39;;;;;;;;;;;17.50;93.30;;;;;;5054413;28;19909;-68
2022/08/05 10:25:06;;;;;;;;;;;17.50;93.60;;;;;;5053152;28;20364;-67
2022/08/05 10:27:33;;;;;;;;;;;17.40;93.50;;;;;;5053645;28;19917;-68
2022/08/05 10:30:01;;;;;;;;;;;17.40;93.60;;;;;;5053752;28;19932;-68
2022/08/05 10:32:28;;;;;;;;;;;17.40;94.10;;;;;;5053372;28;20334;-68
2022/08/05 10:34:57;;;;;;;;;;;17.30;93.30;;;;;;5053997;28;20000;-68
2022/08/05 10:37:24;;;;;;;;;;;17.30;93.20;;;;;;5053504;28;20390;-68
2022/08/05 10:39:53;;;;;;;;;;;17.20;93.50;;;;;;5053009;28;19913;-68
2022/08/05 10:42:21;;;;;;;;;;;17.20;93.70;;;;;;5053203;28;19909;-68
2022/08/05 10:44:49;;;;;;;;;;;17.20;93.50;;;;;;5053177;28;20322;-67
2022/08/05 10:47:16;;;;;;;;;;;17.20;93.30;;;;;;5053057;28;19924;-67
2022/08/05 10:50:01;;;;;;;;;;;17.10;93.90;;;;;;5052893;28;19909;-67
2022/08/05 10:52:42;;;;;;;;;;;17.10;93.00;;;;;;5053472;28;20283;-68
2022/08/05 10:55:10;;;;;;;;;;;17.10;93.10;;;;;;5052746;28;19966;-68
2022/08/05 10:57:40;;;;;;;;;;;17.10;93.80;;;;;;5053121;28;19908;-68
2022/08/05 11:00:18;;;;;;;;;;;17.00;94.10;;;;;;5053000;28;19916;-68
2022/08/05 11:03:02;;;;;;;;;;;17.00;93.80;;;;;;5053075;28;19913;-68
2022/08/05 11:05:29;;;;;;;;;;;17.00;94.90;;;;;;5053359;28;20313;-68
2022/08/05 11:08:01;;;;;;;;;;;17.00;93.70;;;;;;5053025;28;19917;-68
2022/08/05 11:10:28;;;;;;;;;;;16.90;94.10;;;;;;5053098;28;20348;-68
2022/08/05 11:12:58;;;;;;;;;;;17.00;94.50;;;;;;5051854;28;20290;-68
2022/08/05 11:15:27;;;;;;;;;;;16.90;94.50;;;;;;5053093;28;20003;-68
2022/08/05 11:17:55;;;;;;;;;;;16.90;94.00;;;;;;5053004;28;19975;-68
2022/08/05 11:20:33;;;;;;;;;;;16.90;94.60;;;;;;5052958;28;20375;-68
2022/08/05 11:23:00;;;;;;;;;;;16.90;93.90;;;;;;5052557;28;19955;-68
2022/08/05 11:25:30;;;;;;;;;;;16.80;94.30;;;;;;5053000;28;19915;-68
2022/08/05 11:28:16;;;;;;;;;;;16.90;94.60;;;;;;5052926;28;19916;-68
2022/08/05 11:30:55;;;;;;;;;;;16.80;94.10;;;;;;5053069;28;19909;-68
2022/08/05 11:33:28;;;;;;;;;;;16.90;94.80;;;;;;5052779;28;19908;-68
2022/08/05 11:35:56;;;;;;;;;;;16.90;94.90;;;;;;5052842;28;19916;-68
2022/08/05 11:38:38;;;;;;;;;;;16.80;94.50;;;;;;5052287;28;19908;-68
2022/08/05 11:41:06;;;;;;;;;;;16.80;94.50;;;;;;5052935;28;19963;-68
2022/08/05 11:43:33;;;;;;;;;;;16.80;94.80;;;;;;5052764;28;19909;-68
2022/08/05 11:46:01;;;;;;;;;;;16.80;94.70;;;;;;5052529;28;19974;-68
2022/08/05 11:48:29;;;;;;;;;;;16.80;95.00;;;;;;5052801;28;19913;-67
2022/08/05 11:50:55;;;;;;;;;;;16.70;94.80;;;;;;5052740;28;19913;-67
2022/08/05 11:53:22;;;;;;;;;;;16.70;95.30;;;;;;5052261;28;19909;-68
2022/08/05 11:55:53;;;;;;;;;;;16.70;95.30;;;;;;5052794;28;20398;-68
2022/08/05 11:58:45;;;;;;;;;;;16.70;95.00;;;;;;5052558;28;20306;-68
2022/08/05 12:01:16;;;;;;;;;;;16.70;95.20;;;;;;5054268;28;19912;-68
2022/08/05 12:03:45;;;;;;;;;;;16.60;95.00;;;;;;5055034;28;20015;-68
2022/08/05 12:06:12;;;;;;;;;;;16.70;95.00;;;;;;5056112;28;20347;-68
2022/08/05 12:08:46;;;;;;;;;;;16.60;95.30;;;;;;5055950;28;19920;-68
2022/08/05 12:11:20;;;;;;;;;;;16.60;94.20;;;;;;5056358;28;19909;-68
2022/08/05 12:13:53;;;;;;;;;;;16.60;94.60;;;;;;5056346;28;19909;-68
2022/08/05 12:16:21;;;;;;;;;;;16.60;95.10;;;;;;5056031;28;19909;-68
2022/08/05 12:18:47;;;;;;;;;;;16.60;95.10;;;;;;5056082;28;19908;-68
2022/08/05 12:21:15;;;;;;;;;;;16.60;95.30;;;;;;5056110;28;20394;-68
2022/08/05 12:23:58;;;;;;;;;;;16.60;95.00;;;;;;5055612;28;19909;-68
2022/08/05 12:26:29;;;;;;;;;;;16.60;95.30;;;;;;5055722;28;19940;-68
2022/08/05 12:28:56;;;;;;;;;;;16.60;95.30;;;;;;5056123;28;19913;-68
2022/08/05 12:31:23;;;;;;;;;;;16.50;95.30;;;;;;5055972;28;19916;-68
2022/08/05 12:33:50;;;;;;;;;;;16.50;95.30;;;;;;5055962;28;19916;-68
2022/08/05 12:36:17;;;;;;;;;;;16.50;95.90;;;;;;5055631;28;19908;-68
2022/08/05 12:38:43;;;;;;;;;;;16.50;95.10;;;;;;5055317;28;20283;-68
2022/08/05 12:41:14;;;;;;;;;;;16.50;95.50;;;;;;5055790;28;19955;-68
2022/08/05 12:44:07;;;;;;;;;;;16.50;95.70;;;;;;5055494;28;19913;-68
2022/08/05 12:46:34;;;;;;;;;;;16.40;95.60;;;;;;5054447;28;19917;-68
2022/08/05 12:49:10;;;;;;;;;;;16.40;95.30;;;;;;5055541;28;19915;-68
2022/08/05 12:51:47;;;;;;;;;;;16.40;95.30;;;;;;5055539;28;19909;-68
2022/08/05 12:54:24;;;;;;;;;;;16.40;95.50;;;;;;5054834;28;19920;-68
2022/08/05 12:56:53;;;;;;;;;;;16.40;95.50;;;;;;5055476;28;19908;-68
2022/08/05 12:59:42;;;;;;;;;;;16.40;95.40;;;;;;5055451;28;19908;-69
2022/08/05 13:02:10;;;;;;;;;;;16.40;95.90;;;;;;5055011;28;20086;-68
2022/08/05 13:04:38;;;;;;;;;;;16.40;95.80;;;;;;5054072;28;19909;-68
2022/08/05 13:07:11;;;;;;;;;;;16.30;95.90;;;;;;5054627;28;20421;-68
2022/08/05 13:09:38;;;;;;;;;;;16.30;95.90;;;;;;5055219;28;20329;-68
2022/08/05 13:12:10;;;;;;;;;;;16.30;96.00;;;;;;5054458;28;19909;-68
2022/08/05 13:14:47;;;;;;;;;;;16.20;95.90;;;;;;5055136;28;19909;-68
2022/08/05 13:17:14;;;;;;;;;;;16.20;95.60;;;;;;5054902;28;20012;-68
2022/08/05 13:19:41;;;;;;;;;;;16.20;96.30;;;;;;5055182;28;19913;-68
2022/08/05 13:22:08;;;;;;;;;;;16.10;96.20;;;;;;5054162;28;20390;-68
2022/08/05 13:24:35;;;;;;;;;;;16.10;96.70;;;;;;5053689;28;20272;-68
2022/08/05 13:27:02;;;;;;;;;;;16.10;96.60;;;;;;5054742;28;19925;-68
2022/08/05 13:29:28;;;;;;;;;;;16.00;96.70;;;;;;5054957;28;19912;-68
2022/08/05 13:31:57;;;;;;;;;;;15.90;96.80;;;;;;5054485;28;19916;-67
2022/08/05 13:34:24;;;;;;;;;;;15.90;96.20;;;;;;5054542;28;19931;-68
2022/08/05 13:36:50;;;;;;;;;;;15.80;96.70;;;;;;5054169;28;19935;-68
2022/08/05 13:39:17;;;;;;;;;;;15.80;96.80;;;;;;5054604;28;19916;-68
2022/08/05 13:41:44;;;;;;;;;;;15.80;97.10;;;;;;5054652;28;20315;-68
2022/08/05 13:44:10;;;;;;;;;;;15.80;97.10;;;;;;5054323;28;19923;-68
2022/08/05 13:46:37;;;;;;;;;;;15.70;97.20;;;;;;5054248;28;19916;-68
2022/08/05 13:49:04;;;;;;;;;;;15.70;97.30;;;;;;5054474;28;19916;-68
2022/08/05 13:51:32;;;;;;;;;;;15.70;97.50;;;;;;5053839;28;20363;-68
2022/08/05 13:53:59;;;;;;;;;;;15.70;97.20;;;;;;5054306;28;19916;-68
2022/08/05 13:56:25;;;;;;;;;;;15.60;96.90;;;;;;5054180;28;19909;-67
2022/08/05 13:58:52;;;;;;;;;;;15.60;97.10;;;;;;5054307;28;19909;-68
2022/08/05 14:01:19;;;;;;;;;;;15.60;97.70;;;;;;5054165;28;20446;-68
2022/08/05 14:05:09;;;;;;;;;;;15.60;97.80;;;;;;5054561;28;19909;-67
2022/08/05 14:06:32;;;;;;;;;;;15.60;97.60;;;;;;5053609;28;20387;-67
2022/08/05 14:08:59;;;;;;;;;;;15.50;98.10;;;;;;5054114;28;19909;-68
2022/08/05 14:11:27;;;;;;;;;;;15.50;97.60;;;;;;5053709;28;19909;-68
2022/08/05 14:13:53;;;;;;;;;;;15.50;98.20;;;;;;5054024;28;20390;-68
2022/08/05 14:16:20;;;;;;;;;;;15.50;98.40;;;;;;5053690;28;20410;-68
2022/08/05 14:18:47;;;;;;;;;;;15.40;98.40;;;;;;5054015;28;19909;-68
2022/08/05 14:21:14;;;;;;;;;;;15.40;97.90;;;;;;5053948;28;19916;-68
2022/08/05 14:23:43;;;;;;;;;;;15.40;98.10;;;;;;5053076;28;20450;-68
2022/08/05 14:26:10;;;;;;;;;;;15.40;98.50;;;;;;5053482;28;19920;-68
2022/08/05 14:28:36;;;;;;;;;;;15.30;98.60;;;;;;5053764;28;19908;-68